Iona Mcallister — WDD4840 — position and weather

sailwx.info

Track history (hours):
 
Tides and Currents Weather Stations Pressure Air Temp Water Temp Dewpoint Dewpoint Depression Visibility Wind Speed Wind Dir Waves Ship Positions

Iona Mcallister

Owner: McAllister Towing & Transportation Co. Inc., Staten Island, NY. More information available from US FCC via Universal Licensing System and Coast Guard Vessel Documentation Center.

Last reported at 2016-Dec-06 07:33 UTC. Time now 2016-Dec-06 12:10 UTC.
Position N 41°49' W 071°24'.

Length 36 m; draft 3 m.

Type: Towing. MMSI: 367149890.

Date/timePositionNaut miles runAvg speedWind from/ knotsBaromVisibWave heightAir tempDewpointWater temp
2016-Dec-06 07:33N 41°49' W 071°24'0 0.0
2016-Dec-06 06:33N 41°49' W 071°24'0 0.0
2016-Dec-06 05:33N 41°49' W 071°24'0 0.0
2016-Dec-06 04:33N 41°49' W 071°24'0 0.0
2016-Dec-06 03:32N 41°49' W 071°24'0 0.0
2016-Dec-06 02:33N 41°49' W 071°24'0 0.0
2016-Dec-06 01:31N 41°49' W 071°24'0 0.0
2016-Dec-06 00:32N 41°49' W 071°24'0 0.0
2016-Dec-05 23:29N 41°49' W 071°24'0 0.0
2016-Dec-05 20:23N 41°49' W 071°24'1 1.5
2016-Dec-05 19:26N 41°48' W 071°23'2 2.6
2016-Dec-05 18:33N 41°45' W 071°23'6 6.2
2016-Dec-05 17:33N 41°39' W 071°22'3 0.5
2016-Dec-05 11:29N 41°37' W 071°24'2 1.8
2016-Dec-05 10:33N 41°35' W 071°24'0 0.2
2016-Dec-05 09:33N 41°35' W 071°24'0 0.0
2016-Dec-05 08:33N 41°35' W 071°24'0 0.0
2016-Dec-05 07:33N 41°35' W 071°24'0 0.0
2016-Dec-05 06:33N 41°35' W 071°24'0 0.0
2016-Dec-05 05:33N 41°35' W 071°24'0 0.0
2016-Dec-05 04:33N 41°35' W 071°24'0 0.0
2016-Dec-05 03:33N 41°35' W 071°24'0 0.0
2016-Dec-05 02:33N 41°35' W 071°24'0 0.0
2016-Dec-05 01:30N 41°35' W 071°24'0 0.0
2016-Dec-04 23:32N 41°35' W 071°24'5 0.4
2016-Dec-04 10:13N 41°37' W 071°18'6 8.7
2016-Dec-04 09:33N 41°43' W 071°20'6 4.3
2016-Dec-04 08:08N 41°48' W 071°24'1 1.2
2016-Dec-04 07:27N 41°49' W 071°24'0 0.0
2016-Dec-04 06:33N 41°49' W 071°24'0 0.0
2016-Dec-04 05:33N 41°49' W 071°24'0 0.0
2016-Dec-04 04:33N 41°49' W 071°24'0 0.0
2016-Dec-04 03:33N 41°49' W 071°24'0 0.0
2016-Dec-04 02:24N 41°49' W 071°24'0 0.0
2016-Dec-04 01:32N 41°49' W 071°24'0 0.0
2016-Dec-04 00:31N 41°49' W 071°24'0 0.0
2016-Dec-03 23:33N 41°49' W 071°24'1 0.6
2016-Dec-03 22:30N 41°48' W 071°24'1 0.7
2016-Dec-03 21:32N 41°49' W 071°24'0 0.0
2016-Dec-03 20:29N 41°49' W 071°24'0 0.0
2016-Dec-03 19:26N 41°49' W 071°24'0 0.0
2016-Dec-03 18:31N 41°49' W 071°24'0 0.0
2016-Dec-03 17:33N 41°49' W 071°24'0 0.0
2016-Dec-03 16:33N 41°49' W 071°24'2 1.4
2016-Dec-03 15:15N 41°47' W 071°23'3 4.1
2016-Dec-03 14:33N 41°45' W 071°22'3 2.6
2016-Dec-03 13:33N 41°47' W 071°23'0 0.1
2016-Dec-03 10:17N 41°47' W 071°23'1 0.3
2016-Dec-03 08:33N 41°47' W 071°22'2 2.2
2016-Dec-03 07:32N 41°49' W 071°24'0 0.0
2016-Dec-03 06:33N 41°49' W 071°24'0 0.0
2016-Dec-03 05:32N 41°49' W 071°24'0 0.0
2016-Dec-03 04:30N 41°49' W 071°24'0 0.0
2016-Dec-03 03:29N 41°49' W 071°24'0 0.0
2016-Dec-03 02:32N 41°49' W 071°24'4 2.3
2016-Dec-03 00:33N 41°45' W 071°22'8 7.2
2016-Dec-02 23:26N 41°37' W 071°24'0 0.0
2016-Dec-02 11:20N 41°36' W 071°24'1 1.5
2016-Dec-02 10:30N 41°35' W 071°24'0 0.0
2016-Dec-02 09:25N 41°35' W 071°24'0 0.0
2016-Dec-02 08:25N 41°35' W 071°24'0 0.0
2016-Dec-02 07:32N 41°35' W 071°24'0 0.0
2016-Dec-02 06:27N 41°35' W 071°24'0 0.0
2016-Dec-02 05:32N 41°35' W 071°24'0 0.0
2016-Dec-02 04:33N 41°35' W 071°24'0 0.0
2016-Dec-02 03:34N 41°35' W 071°24'7 7.1
2016-Dec-02 02:33N 41°42' W 071°20'8 7.0
2016-Dec-02 01:28N 41°49' W 071°24'0 0.0
2016-Dec-01 22:14N 41°49' W 071°24'2 1.4
2016-Dec-01 20:33N 41°47' W 071°22'1 0.6
2016-Dec-01 19:32N 41°46' W 071°22'3 1.3
2016-Dec-01 17:32N 41°44' W 071°22'8 0.4
2016-Nov-30 21:18N 41°36' W 071°24'1 0.1
2016-Nov-30 12:13N 41°37' W 071°24'1 0.8
2016-Nov-30 11:30N 41°36' W 071°24'7 0.3
2016-Nov-29 11:22N 41°30' W 071°21'8 8.9
2016-Nov-29 10:31N 41°37' W 071°18'8 8.5
2016-Nov-29 09:33N 41°45' W 071°22'4 4.4
2016-Nov-29 08:32N 41°49' W 071°24'0 0.0
2016-Nov-29 07:33N 41°49' W 071°24'0 0.0
2016-Nov-29 03:32N 41°49' W 071°24'0 0.0
2016-Nov-29 02:33N 41°49' W 071°24'0 0.0
2016-Nov-29 01:33N 41°49' W 071°24'2 1.7
2016-Nov-29 00:27N 41°47' W 071°23'7 7.5
2016-Nov-28 23:32N 41°41' W 071°21'5 4.5
2016-Nov-28 22:30N 41°37' W 071°24'0 0.0
2016-Nov-28 12:10N 41°37' W 071°24'1 1.0
2016-Nov-28 11:31N 41°36' W 071°24'0 0.1
2016-Nov-28 10:32N 41°36' W 071°24'1 0.1
2016-Nov-27 15:07N 41°35' W 071°25'4 0.3
2016-Nov-27 00:33N 41°33' W 071°20'9 9.3
2016-Nov-26 23:33N 41°42' W 071°20'  
Track history (hours):
 
Tides and Currents Weather Stations Pressure Air Temp Water Temp Dewpoint Dewpoint Depression Visibility Wind Speed Wind Dir Waves Ship Positions

Iona Mcallister

Owner: McAllister Towing & Transportation Co. Inc., Staten Island, NY. More information available from US FCC via Universal Licensing System and Coast Guard Vessel Documentation Center.

Last reported at 2016-Dec-06 07:33 UTC. Time now 2016-Dec-06 12:10 UTC.
Position N 41°49' W 071°24'.

Length 36 m; draft 3 m.

Type: Towing. MMSI: 367149890.

Date/timePositionNaut miles runAvg speedWind from/ knotsBaromVisibWave heightAir tempDewpointWater temp
2016-Dec-06 07:33N 41°49' W 071°24'0 0.0
2016-Dec-06 06:33N 41°49' W 071°24'0 0.0
2016-Dec-06 05:33N 41°49' W 071°24'0 0.0
2016-Dec-06 04:33N 41°49' W 071°24'0 0.0
2016-Dec-06 03:32N 41°49' W 071°24'0 0.0
2016-Dec-06 02:33N 41°49' W 071°24'0 0.0
2016-Dec-06 01:31N 41°49' W 071°24'0 0.0
2016-Dec-06 00:32N 41°49' W 071°24'0 0.0
2016-Dec-05 23:29N 41°49' W 071°24'0 0.0
2016-Dec-05 20:23N 41°49' W 071°24'1 1.5
2016-Dec-05 19:26N 41°48' W 071°23'2 2.6
2016-Dec-05 18:33N 41°45' W 071°23'6 6.2
2016-Dec-05 17:33N 41°39' W 071°22'3 0.5
2016-Dec-05 11:29N 41°37' W 071°24'2 1.8
2016-Dec-05 10:33N 41°35' W 071°24'0 0.2
2016-Dec-05 09:33N 41°35' W 071°24'0 0.0
2016-Dec-05 08:33N 41°35' W 071°24'0 0.0
2016-Dec-05 07:33N 41°35' W 071°24'0 0.0
2016-Dec-05 06:33N 41°35' W 071°24'0 0.0
2016-Dec-05 05:33N 41°35' W 071°24'0 0.0
2016-Dec-05 04:33N 41°35' W 071°24'0 0.0
2016-Dec-05 03:33N 41°35' W 071°24'0 0.0
2016-Dec-05 02:33N 41°35' W 071°24'0 0.0
2016-Dec-05 01:30N 41°35' W 071°24'0 0.0
2016-Dec-04 23:32N 41°35' W 071°24'5 0.4
2016-Dec-04 10:13N 41°37' W 071°18'6 8.7
2016-Dec-04 09:33N 41°43' W 071°20'6 4.3
2016-Dec-04 08:08N 41°48' W 071°24'1 1.2
2016-Dec-04 07:27N 41°49' W 071°24'0 0.0
2016-Dec-04 06:33N 41°49' W 071°24'0 0.0
2016-Dec-04 05:33N 41°49' W 071°24'0 0.0
2016-Dec-04 04:33N 41°49' W 071°24'0 0.0
2016-Dec-04 03:33N 41°49' W 071°24'0 0.0
2016-Dec-04 02:24N 41°49' W 071°24'0 0.0
2016-Dec-04 01:32N 41°49' W 071°24'0 0.0
2016-Dec-04 00:31N 41°49' W 071°24'0 0.0
2016-Dec-03 23:33N 41°49' W 071°24'1 0.6
2016-Dec-03 22:30N 41°48' W 071°24'1 0.7
2016-Dec-03 21:32N 41°49' W 071°24'0 0.0
2016-Dec-03 20:29N 41°49' W 071°24'0 0.0
2016-Dec-03 19:26N 41°49' W 071°24'0 0.0
2016-Dec-03 18:31N 41°49' W 071°24'0 0.0
2016-Dec-03 17:33N 41°49' W 071°24'0 0.0
2016-Dec-03 16:33N 41°49' W 071°24'2 1.4
2016-Dec-03 15:15N 41°47' W 071°23'3 4.1
2016-Dec-03 14:33N 41°45' W 071°22'3 2.6
2016-Dec-03 13:33N 41°47' W 071°23'0 0.1
2016-Dec-03 10:17N 41°47' W 071°23'1 0.3
2016-Dec-03 08:33N 41°47' W 071°22'2 2.2
2016-Dec-03 07:32N 41°49' W 071°24'0 0.0
2016-Dec-03 06:33N 41°49' W 071°24'0 0.0
2016-Dec-03 05:32N 41°49' W 071°24'0 0.0
2016-Dec-03 04:30N 41°49' W 071°24'0 0.0
2016-Dec-03 03:29N 41°49' W 071°24'0 0.0
2016-Dec-03 02:32N 41°49' W 071°24'4 2.3
2016-Dec-03 00:33N 41°45' W 071°22'8 7.2
2016-Dec-02 23:26N 41°37' W 071°24'0 0.0
2016-Dec-02 11:20N 41°36' W 071°24'1 1.5
2016-Dec-02 10:30N 41°35' W 071°24'0 0.0
2016-Dec-02 09:25N 41°35' W 071°24'0 0.0
2016-Dec-02 08:25N 41°35' W 071°24'0 0.0
2016-Dec-02 07:32N 41°35' W 071°24'0 0.0
2016-Dec-02 06:27N 41°35' W 071°24'0 0.0
2016-Dec-02 05:32N 41°35' W 071°24'0 0.0
2016-Dec-02 04:33N 41°35' W 071°24'0 0.0
2016-Dec-02 03:34N 41°35' W 071°24'7 7.1
2016-Dec-02 02:33N 41°42' W 071°20'8 7.0
2016-Dec-02 01:28N 41°49' W 071°24'0 0.0
2016-Dec-01 22:14N 41°49' W 071°24'2 1.4
2016-Dec-01 20:33N 41°47' W 071°22'1 0.6
2016-Dec-01 19:32N 41°46' W 071°22'3 1.3
2016-Dec-01 17:32N 41°44' W 071°22'8 0.4
2016-Nov-30 21:18N 41°36' W 071°24'1 0.1
2016-Nov-30 12:13N 41°37' W 071°24'1 0.8
2016-Nov-30 11:30N 41°36' W 071°24'7 0.3
2016-Nov-29 11:22N 41°30' W 071°21'8 8.9
2016-Nov-29 10:31N 41°37' W 071°18'8 8.5
2016-Nov-29 09:33N 41°45' W 071°22'4 4.4
2016-Nov-29 08:32N 41°49' W 071°24'0 0.0
2016-Nov-29 07:33N 41°49' W 071°24'0 0.0
2016-Nov-29 03:32N 41°49' W 071°24'0 0.0
2016-Nov-29 02:33N 41°49' W 071°24'0 0.0
2016-Nov-29 01:33N 41°49' W 071°24'2 1.7
2016-Nov-29 00:27N 41°47' W 071°23'7 7.5
2016-Nov-28 23:32N 41°41' W 071°21'5 4.5
2016-Nov-28 22:30N 41°37' W 071°24'0 0.0
2016-Nov-28 12:10N 41°37' W 071°24'1 1.0
2016-Nov-28 11:31N 41°36' W 071°24'0 0.1
2016-Nov-28 10:32N 41°36' W 071°24'1 0.1
2016-Nov-27 15:07N 41°35' W 071°25'4 0.3
2016-Nov-27 00:33N 41°33' W 071°20'9 9.3
2016-Nov-26 23:33N 41°42' W 071°20'  

Dump ship's entire track history